sensor_id;sensor_type;location;lat;lon;timestamp;P1;durP1;ratioP1;P2;durP2;ratioP2
14734;SDS011;7458;49.002;8.472;2023-04-24T00:00:20;4.13;;;1.55;;
14734;SDS011;7458;49.002;8.472;2023-04-24T00:02:46;3.08;;;1.48;;
14734;SDS011;7458;49.002;8.472;2023-04-24T00:05:15;1.75;;;1.50;;
14734;SDS011;7458;49.002;8.472;2023-04-24T00:07:42;2.63;;;1.30;;
14734;SDS011;7458;49.002;8.472;2023-04-24T00:10:10;3.75;;;0.98;;
14734;SDS011;7458;49.002;8.472;2023-04-24T00:12:38;2.20;;;1.35;;
14734;SDS011;7458;49.002;8.472;2023-04-24T00:15:04;1.80;;;1.40;;
14734;SDS011;7458;49.002;8.472;2023-04-24T00:17:31;1.63;;;1.05;;
14734;SDS011;7458;49.002;8.472;2023-04-24T00:19:57;6.10;;;2.20;;
14734;SDS011;7458;49.002;8.472;2023-04-24T00:22:26;5.28;;;1.23;;
14734;SDS011;7458;49.002;8.472;2023-04-24T00:24:53;1.58;;;1.25;;
14734;SDS011;7458;49.002;8.472;2023-04-24T00:27:19;2.53;;;1.52;;
14734;SDS011;7458;49.002;8.472;2023-04-24T00:29:45;8.45;;;1.85;;
14734;SDS011;7458;49.002;8.472;2023-04-24T00:32:12;2.75;;;1.58;;
14734;SDS011;7458;49.002;8.472;2023-04-24T00:34:39;1.55;;;1.17;;
14734;SDS011;7458;49.002;8.472;2023-04-24T00:37:05;2.17;;;1.67;;
14734;SDS011;7458;49.002;8.472;2023-04-24T00:39:31;6.15;;;1.50;;
14734;SDS011;7458;49.002;8.472;2023-04-24T00:41:57;4.45;;;1.52;;
14734;SDS011;7458;49.002;8.472;2023-04-24T00:44:24;2.85;;;1.10;;
14734;SDS011;7458;49.002;8.472;2023-04-24T00:46:50;2.17;;;1.73;;
14734;SDS011;7458;49.002;8.472;2023-04-24T00:49:19;3.28;;;1.80;;
14734;SDS011;7458;49.002;8.472;2023-04-24T00:51:46;2.05;;;1.05;;
14734;SDS011;7458;49.002;8.472;2023-04-24T00:54:14;5.70;;;1.05;;
14734;SDS011;7458;49.002;8.472;2023-04-24T00:56:40;2.97;;;1.70;;
14734;SDS011;7458;49.002;8.472;2023-04-24T00:59:08;4.40;;;1.95;;
14734;SDS011;7458;49.002;8.472;2023-04-24T01:01:34;2.22;;;1.30;;
14734;SDS011;7458;49.002;8.472;2023-04-24T01:04:01;3.85;;;1.25;;
14734;SDS011;7458;49.002;8.472;2023-04-24T01:06:28;4.10;;;1.88;;
14734;SDS011;7458;49.002;8.472;2023-04-24T01:08:58;2.35;;;1.48;;
14734;SDS011;7458;49.002;8.472;2023-04-24T01:11:25;3.58;;;1.48;;
14734;SDS011;7458;49.002;8.472;2023-04-24T01:13:51;3.72;;;1.35;;
14734;SDS011;7458;49.002;8.472;2023-04-24T01:16:18;2.90;;;1.58;;
14734;SDS011;7458;49.002;8.472;2023-04-24T01:18:45;1.48;;;1.33;;
14734;SDS011;7458;49.002;8.472;2023-04-24T01:21:13;3.67;;;2.15;;
14734;SDS011;7458;49.002;8.472;2023-04-24T01:23:44;1.25;;;0.90;;
14734;SDS011;7458;49.002;8.472;2023-04-24T01:26:11;1.17;;;1.05;;
14734;SDS011;7458;49.002;8.472;2023-04-24T01:28:38;3.60;;;1.63;;
14734;SDS011;7458;49.002;8.472;2023-04-24T01:31:04;2.75;;;1.77;;
14734;SDS011;7458;49.002;8.472;2023-04-24T01:33:31;2.35;;;1.10;;
14734;SDS011;7458;49.002;8.472;2023-04-24T01:35:57;2.85;;;1.25;;
14734;SDS011;7458;49.002;8.472;2023-04-24T01:38:23;2.85;;;1.60;;
14734;SDS011;7458;49.002;8.472;2023-04-24T01:40:49;3.65;;;1.65;;
14734;SDS011;7458;49.002;8.472;2023-04-24T01:43:16;3.42;;;1.83;;
14734;SDS011;7458;49.002;8.472;2023-04-24T01:45:42;2.30;;;1.20;;
14734;SDS011;7458;49.002;8.472;2023-04-24T01:48:08;2.60;;;1.63;;
14734;SDS011;7458;49.002;8.472;2023-04-24T01:50:34;2.67;;;2.17;;
14734;SDS011;7458;49.002;8.472;2023-04-24T01:53:00;5.00;;;1.63;;
14734;SDS011;7458;49.002;8.472;2023-04-24T01:55:27;3.25;;;1.10;;
14734;SDS011;7458;49.002;8.472;2023-04-24T01:57:53;3.22;;;1.67;;
14734;SDS011;7458;49.002;8.472;2023-04-24T02:00:21;1.50;;;1.10;;
14734;SDS011;7458;49.002;8.472;2023-04-24T02:02:49;1.48;;;1.25;;
14734;SDS011;7458;49.002;8.472;2023-04-24T02:05:14;2.63;;;1.80;;
14734;SDS011;7458;49.002;8.472;2023-04-24T02:07:40;3.53;;;1.80;;
14734;SDS011;7458;49.002;8.472;2023-04-24T02:10:06;4.47;;;1.55;;
14734;SDS011;7458;49.002;8.472;2023-04-24T02:12:32;1.95;;;1.20;;
14734;SDS011;7458;49.002;8.472;2023-04-24T02:14:59;2.58;;;1.40;;
14734;SDS011;7458;49.002;8.472;2023-04-24T02:17:24;2.10;;;1.30;;
14734;SDS011;7458;49.002;8.472;2023-04-24T02:19:50;1.90;;;1.35;;
14734;SDS011;7458;49.002;8.472;2023-04-24T02:22:16;1.80;;;1.10;;
14734;SDS011;7458;49.002;8.472;2023-04-24T02:24:42;3.28;;;1.50;;
14734;SDS011;7458;49.002;8.472;2023-04-24T02:27:08;3.10;;;1.33;;
14734;SDS011;7458;49.002;8.472;2023-04-24T02:29:35;3.78;;;1.42;;
14734;SDS011;7458;49.002;8.472;2023-04-24T02:32:01;2.65;;;1.70;;
14734;SDS011;7458;49.002;8.472;2023-04-24T02:34:26;8.40;;;2.33;;
14734;SDS011;7458;49.002;8.472;2023-04-24T02:36:52;1.60;;;1.48;;
14734;SDS011;7458;49.002;8.472;2023-04-24T02:39:19;2.50;;;1.50;;
14734;SDS011;7458;49.002;8.472;2023-04-24T02:41:45;8.10;;;2.38;;
14734;SDS011;7458;49.002;8.472;2023-04-24T02:44:10;2.72;;;1.58;;
14734;SDS011;7458;49.002;8.472;2023-04-24T02:46:36;4.93;;;1.75;;
14734;SDS011;7458;49.002;8.472;2023-04-24T02:49:02;2.17;;;1.17;;
14734;SDS011;7458;49.002;8.472;2023-04-24T02:51:28;4.63;;;1.77;;
14734;SDS011;7458;49.002;8.472;2023-04-24T02:53:54;3.78;;;1.80;;
14734;SDS011;7458;49.002;8.472;2023-04-24T02:56:20;4.22;;;1.83;;
14734;SDS011;7458;49.002;8.472;2023-04-24T02:58:46;3.58;;;1.67;;
14734;SDS011;7458;49.002;8.472;2023-04-24T03:01:12;2.20;;;1.35;;
14734;SDS011;7458;49.002;8.472;2023-04-24T03:03:38;5.25;;;2.35;;
14734;SDS011;7458;49.002;8.472;2023-04-24T03:06:04;4.00;;;2.03;;
14734;SDS011;7458;49.002;8.472;2023-04-24T03:08:33;3.65;;;1.38;;
14734;SDS011;7458;49.002;8.472;2023-04-24T03:11:00;2.65;;;1.50;;
14734;SDS011;7458;49.002;8.472;2023-04-24T03:13:26;2.92;;;1.38;;
14734;SDS011;7458;49.002;8.472;2023-04-24T03:15:52;5.00;;;2.20;;
14734;SDS011;7458;49.002;8.472;2023-04-24T03:18:18;5.53;;;1.90;;
14734;SDS011;7458;49.002;8.472;2023-04-24T03:20:47;5.85;;;1.55;;
14734;SDS011;7458;49.002;8.472;2023-04-24T03:23:13;2.50;;;1.63;;
14734;SDS011;7458;49.002;8.472;2023-04-24T03:25:40;2.20;;;1.50;;
14734;SDS011;7458;49.002;8.472;2023-04-24T03:28:07;2.55;;;1.75;;
14734;SDS011;7458;49.002;8.472;2023-04-24T03:30:33;2.72;;;1.80;;
14734;SDS011;7458;49.002;8.472;2023-04-24T03:32:59;3.28;;;1.63;;
14734;SDS011;7458;49.002;8.472;2023-04-24T03:35:25;2.80;;;1.45;;
14734;SDS011;7458;49.002;8.472;2023-04-24T03:37:52;2.80;;;1.50;;
14734;SDS011;7458;49.002;8.472;2023-04-24T03:40:17;6.20;;;2.03;;
14734;SDS011;7458;49.002;8.472;2023-04-24T03:42:43;3.10;;;1.85;;
14734;SDS011;7458;49.002;8.472;2023-04-24T03:45:09;3.63;;;2.15;;
14734;SDS011;7458;49.002;8.472;2023-04-24T03:47:35;3.42;;;1.92;;
14734;SDS011;7458;49.002;8.472;2023-04-24T03:50:01;2.58;;;2.20;;
14734;SDS011;7458;49.002;8.472;2023-04-24T03:52:27;3.08;;;2.05;;
14734;SDS011;7458;49.002;8.472;2023-04-24T03:54:53;3.08;;;1.85;;
14734;SDS011;7458;49.002;8.472;2023-04-24T03:57:20;6.00;;;2.67;;
14734;SDS011;7458;49.002;8.472;2023-04-24T03:59:46;2.67;;;2.10;;
14734;SDS011;7458;49.002;8.472;2023-04-24T04:02:12;2.75;;;2.30;;
14734;SDS011;7458;49.002;8.472;2023-04-24T04:04:37;3.28;;;2.10;;
14734;SDS011;7458;49.002;8.472;2023-04-24T04:07:03;3.05;;;2.42;;
14734;SDS011;7458;49.002;8.472;2023-04-24T04:09:30;3.47;;;2.00;;
14734;SDS011;7458;49.002;8.472;2023-04-24T04:11:57;2.88;;;2.03;;
14734;SDS011;7458;49.002;8.472;2023-04-24T04:14:23;4.75;;;2.33;;
14734;SDS011;7458;49.002;8.472;2023-04-24T04:16:49;2.95;;;2.38;;
14734;SDS011;7458;49.002;8.472;2023-04-24T04:19:16;4.35;;;2.30;;
14734;SDS011;7458;49.002;8.472;2023-04-24T04:21:41;2.92;;;2.40;;
14734;SDS011;7458;49.002;8.472;2023-04-24T04:24:07;5.57;;;2.50;;
14734;SDS011;7458;49.002;8.472;2023-04-24T04:26:34;5.50;;;1.92;;
14734;SDS011;7458;49.002;8.472;2023-04-24T04:29:02;4.00;;;2.78;;
14734;SDS011;7458;49.002;8.472;2023-04-24T04:31:29;5.25;;;2.67;;
14734;SDS011;7458;49.002;8.472;2023-04-24T04:33:55;1267.05;;;999.90;;
14734;SDS011;7458;49.002;8.472;2023-04-24T04:36:21;1263.18;;;999.90;;
14734;SDS011;7458;49.002;8.472;2023-04-24T04:38:48;1264.57;;;999.90;;
14734;SDS011;7458;49.002;8.472;2023-04-24T04:41:14;1249.22;;;995.47;;
14734;SDS011;7458;49.002;8.472;2023-04-24T04:43:41;1279.40;;;999.90;;
14734;SDS011;7458;49.002;8.472;2023-04-24T04:46:07;1257.03;;;956.90;;
14734;SDS011;7458;49.002;8.472;2023-04-24T04:48:35;1235.50;;;999.85;;
14734;SDS011;7458;49.002;8.472;2023-04-24T04:51:01;1236.20;;;950.65;;
14734;SDS011;7458;49.002;8.472;2023-04-24T04:53:27;1248.00;;;993.42;;
14734;SDS011;7458;49.002;8.472;2023-04-24T04:55:53;1226.85;;;999.90;;
14734;SDS011;7458;49.002;8.472;2023-04-24T04:58:19;1249.30;;;944.95;;
14734;SDS011;7458;49.002;8.472;2023-04-24T05:00:45;1242.45;;;827.53;;
14734;SDS011;7458;49.002;8.472;2023-04-24T05:03:11;1233.88;;;827.13;;
14734;SDS011;7458;49.002;8.472;2023-04-24T05:05:37;1209.68;;;992.25;;
14734;SDS011;7458;49.002;8.472;2023-04-24T05:08:05;1176.82;;;999.90;;
14734;SDS011;7458;49.002;8.472;2023-04-24T05:10:33;1198.10;;;928.90;;
14734;SDS011;7458;49.002;8.472;2023-04-24T05:12:59;1208.13;;;840.60;;
14734;SDS011;7458;49.002;8.472;2023-04-24T05:15:25;1207.90;;;866.03;;
14734;SDS011;7458;49.002;8.472;2023-04-24T05:17:51;1175.43;;;802.23;;
14734;SDS011;7458;49.002;8.472;2023-04-24T05:20:16;1217.80;;;823.97;;
14734;SDS011;7458;49.002;8.472;2023-04-24T05:22:42;1192.47;;;877.72;;
14734;SDS011;7458;49.002;8.472;2023-04-24T05:25:08;1213.75;;;820.60;;
14734;SDS011;7458;49.002;8.472;2023-04-24T05:27:34;1171.25;;;819.70;;
14734;SDS011;7458;49.002;8.472;2023-04-24T05:30:00;1162.50;;;999.85;;
14734;SDS011;7458;49.002;8.472;2023-04-24T05:32:25;1157.40;;;981.03;;
14734;SDS011;7458;49.002;8.472;2023-04-24T05:34:52;1157.88;;;957.05;;
14734;SDS011;7458;49.002;8.472;2023-04-24T05:37:17;1149.43;;;842.67;;
14734;SDS011;7458;49.002;8.472;2023-04-24T05:39:43;1151.67;;;859.87;;
14734;SDS011;7458;49.002;8.472;2023-04-24T05:42:09;1194.13;;;822.00;;
14734;SDS011;7458;49.002;8.472;2023-04-24T05:44:35;1186.03;;;859.55;;
14734;SDS011;7458;49.002;8.472;2023-04-24T05:47:01;1186.35;;;858.53;;
14734;SDS011;7458;49.002;8.472;2023-04-24T05:49:27;1171.45;;;964.40;;
14734;SDS011;7458;49.002;8.472;2023-04-24T05:51:52;1165.30;;;970.00;;
14734;SDS011;7458;49.002;8.472;2023-04-24T05:54:18;1210.15;;;955.78;;
14734;SDS011;7458;49.002;8.472;2023-04-24T05:56:44;1157.95;;;969.53;;
14734;SDS011;7458;49.002;8.472;2023-04-24T05:59:10;1179.90;;;865.78;;
14734;SDS011;7458;49.002;8.472;2023-04-24T06:01:36;1154.47;;;932.90;;
14734;SDS011;7458;49.002;8.472;2023-04-24T06:04:02;1188.07;;;955.90;;
14734;SDS011;7458;49.002;8.472;2023-04-24T06:06:29;1187.38;;;917.60;;
14734;SDS011;7458;49.002;8.472;2023-04-24T06:08:55;1190.57;;;922.47;;
14734;SDS011;7458;49.002;8.472;2023-04-24T06:11:22;1207.18;;;976.30;;
14734;SDS011;7458;49.002;8.472;2023-04-24T06:13:47;1182.28;;;901.67;;
14734;SDS011;7458;49.002;8.472;2023-04-24T06:16:13;1237.90;;;885.05;;
14734;SDS011;7458;49.002;8.472;2023-04-24T06:18:39;1206.22;;;979.00;;
14734;SDS011;7458;49.002;8.472;2023-04-24T06:21:05;1248.20;;;899.78;;
14734;SDS011;7458;49.002;8.472;2023-04-24T06:23:31;1226.47;;;999.90;;
14734;SDS011;7458;49.002;8.472;2023-04-24T06:25:57;1217.60;;;999.90;;
14734;SDS011;7458;49.002;8.472;2023-04-24T06:28:24;1226.47;;;999.90;;
14734;SDS011;7458;49.002;8.472;2023-04-24T06:30:51;1263.35;;;953.00;;
14734;SDS011;7458;49.002;8.472;2023-04-24T06:33:16;1242.50;;;999.90;;
14734;SDS011;7458;49.002;8.472;2023-04-24T06:35:42;1272.03;;;957.53;;
14734;SDS011;7458;49.002;8.472;2023-04-24T06:38:08;1203.13;;;987.33;;
14734;SDS011;7458;49.002;8.472;2023-04-24T06:40:33;1184.78;;;941.90;;
14734;SDS011;7458;49.002;8.472;2023-04-24T06:42:59;1236.82;;;843.63;;
14734;SDS011;7458;49.002;8.472;2023-04-24T06:45:27;1278.00;;;968.50;;
14734;SDS011;7458;49.002;8.472;2023-04-24T06:47:54;1279.55;;;971.40;;
14734;SDS011;7458;49.002;8.472;2023-04-24T06:50:21;1219.65;;;999.90;;
14734;SDS011;7458;49.002;8.472;2023-04-24T06:52:47;1227.70;;;999.90;;
14734;SDS011;7458;49.002;8.472;2023-04-24T06:55:12;1265.22;;;919.83;;
14734;SDS011;7458;49.002;8.472;2023-04-24T06:57:40;1176.97;;;971.72;;
14734;SDS011;7458;49.002;8.472;2023-04-24T07:00:06;1212.22;;;865.42;;
14734;SDS011;7458;49.002;8.472;2023-04-24T07:02:34;1164.80;;;970.67;;
14734;SDS011;7458;49.002;8.472;2023-04-24T07:05:00;1220.25;;;862.95;;
14734;SDS011;7458;49.002;8.472;2023-04-24T07:07:26;1126.70;;;965.10;;
14734;SDS011;7458;49.002;8.472;2023-04-24T07:09:52;1153.32;;;969.28;;
14734;SDS011;7458;49.002;8.472;2023-04-24T07:12:19;1206.65;;;879.45;;
14734;SDS011;7458;49.002;8.472;2023-04-24T07:14:46;1121.82;;;951.20;;
14734;SDS011;7458;49.002;8.472;2023-04-24T07:17:12;1376.60;;;999.90;;
14734;SDS011;7458;49.002;8.472;2023-04-24T07:19:39;1403.50;;;999.90;;
14734;SDS011;7458;49.002;8.472;2023-04-24T07:22:05;1261.60;;;999.90;;
14734;SDS011;7458;49.002;8.472;2023-04-24T07:24:31;1418.50;;;999.90;;
14734;SDS011;7458;49.002;8.472;2023-04-24T07:26:57;3.83;;;2.75;;
14734;SDS011;7458;49.002;8.472;2023-04-24T07:29:23;4.05;;;2.50;;
14734;SDS011;7458;49.002;8.472;2023-04-24T07:31:49;4.97;;;3.97;;
14734;SDS011;7458;49.002;8.472;2023-04-24T07:34:15;6.32;;;3.90;;
14734;SDS011;7458;49.002;8.472;2023-04-24T07:36:41;5.85;;;2.78;;
14734;SDS011;7458;49.002;8.472;2023-04-24T07:39:09;3.92;;;3.05;;
14734;SDS011;7458;49.002;8.472;2023-04-24T07:41:35;3.65;;;2.72;;
14734;SDS011;7458;49.002;8.472;2023-04-24T07:44:01;3.90;;;3.33;;
14734;SDS011;7458;49.002;8.472;2023-04-24T07:46:27;3.80;;;2.47;;
14734;SDS011;7458;49.002;8.472;2023-04-24T07:48:55;2.63;;;2.42;;
14734;SDS011;7458;49.002;8.472;2023-04-24T07:51:21;2.22;;;1.90;;
14734;SDS011;7458;49.002;8.472;2023-04-24T07:53:47;4.25;;;2.42;;
14734;SDS011;7458;49.002;8.472;2023-04-24T07:56:12;3.50;;;1.77;;
14734;SDS011;7458;49.002;8.472;2023-04-24T07:58:39;4.53;;;2.60;;
14734;SDS011;7458;49.002;8.472;2023-04-24T08:01:05;3.60;;;1.83;;
14734;SDS011;7458;49.002;8.472;2023-04-24T08:03:31;3.63;;;2.42;;
14734;SDS011;7458;49.002;8.472;2023-04-24T08:05:57;3.47;;;1.52;;
14734;SDS011;7458;49.002;8.472;2023-04-24T08:08:22;3.80;;;2.28;;
14734;SDS011;7458;49.002;8.472;2023-04-24T08:10:49;4.18;;;2.25;;
14734;SDS011;7458;49.002;8.472;2023-04-24T08:13:15;5.28;;;2.08;;
14734;SDS011;7458;49.002;8.472;2023-04-24T08:15:41;7.47;;;2.83;;
14734;SDS011;7458;49.002;8.472;2023-04-24T08:18:07;3.10;;;2.00;;
14734;SDS011;7458;49.002;8.472;2023-04-24T08:20:33;5.20;;;2.80;;
14734;SDS011;7458;49.002;8.472;2023-04-24T08:22:59;3.25;;;2.25;;
14734;SDS011;7458;49.002;8.472;2023-04-24T08:25:25;7.35;;;3.45;;
14734;SDS011;7458;49.002;8.472;2023-04-24T08:27:51;5.35;;;3.10;;
14734;SDS011;7458;49.002;8.472;2023-04-24T08:30:17;3.70;;;2.38;;
14734;SDS011;7458;49.002;8.472;2023-04-24T08:32:43;3.50;;;3.03;;
14734;SDS011;7458;49.002;8.472;2023-04-24T08:35:09;4.47;;;2.25;;
14734;SDS011;7458;49.002;8.472;2023-04-24T08:37:35;4.25;;;2.13;;
14734;SDS011;7458;49.002;8.472;2023-04-24T08:40:12;3.58;;;2.50;;
14734;SDS011;7458;49.002;8.472;2023-04-24T08:42:41;4.63;;;2.92;;
14734;SDS011;7458;49.002;8.472;2023-04-24T08:45:09;4.18;;;2.08;;
14734;SDS011;7458;49.002;8.472;2023-04-24T08:47:40;2.65;;;2.08;;
14734;SDS011;7458;49.002;8.472;2023-04-24T08:50:07;3.20;;;2.17;;
14734;SDS011;7458;49.002;8.472;2023-04-24T08:52:34;2.60;;;1.90;;
14734;SDS011;7458;49.002;8.472;2023-04-24T08:55:01;3.20;;;2.28;;
14734;SDS011;7458;49.002;8.472;2023-04-24T08:57:28;2.92;;;2.40;;
14734;SDS011;7458;49.002;8.472;2023-04-24T08:59:56;3.55;;;2.85;;
14734;SDS011;7458;49.002;8.472;2023-04-24T09:02:24;3.78;;;1.77;;
14734;SDS011;7458;49.002;8.472;2023-04-24T09:04:51;3.35;;;2.35;;
14734;SDS011;7458;49.002;8.472;2023-04-24T09:07:18;7.45;;;2.00;;
14734;SDS011;7458;49.002;8.472;2023-04-24T09:09:47;4.82;;;1.92;;
14734;SDS011;7458;49.002;8.472;2023-04-24T09:12:15;2.17;;;1.85;;
14734;SDS011;7458;49.002;8.472;2023-04-24T09:14:42;4.63;;;2.45;;
14734;SDS011;7458;49.002;8.472;2023-04-24T09:17:10;3.10;;;1.80;;
14734;SDS011;7458;49.002;8.472;2023-04-24T09:19:37;6.05;;;2.17;;
14734;SDS011;7458;49.002;8.472;2023-04-24T09:22:06;5.25;;;2.75;;
14734;SDS011;7458;49.002;8.472;2023-04-24T09:24:34;5.20;;;2.42;;
14734;SDS011;7458;49.002;8.472;2023-04-24T09:27:00;5.95;;;2.25;;
14734;SDS011;7458;49.002;8.472;2023-04-24T09:29:27;4.85;;;2.10;;
14734;SDS011;7458;49.002;8.472;2023-04-24T09:31:53;4.15;;;3.08;;
14734;SDS011;7458;49.002;8.472;2023-04-24T09:34:22;4.43;;;2.70;;
14734;SDS011;7458;49.002;8.472;2023-04-24T09:36:50;4.63;;;2.78;;
14734;SDS011;7458;49.002;8.472;2023-04-24T09:39:17;4.85;;;2.65;;
14734;SDS011;7458;49.002;8.472;2023-04-24T09:41:53;5.43;;;3.20;;
14734;SDS011;7458;49.002;8.472;2023-04-24T09:44:24;4.10;;;3.25;;
14734;SDS011;7458;49.002;8.472;2023-04-24T09:46:56;8.15;;;2.97;;
14734;SDS011;7458;49.002;8.472;2023-04-24T09:49:28;6.22;;;3.75;;
14734;SDS011;7458;49.002;8.472;2023-04-24T09:54:30;7.70;;;3.13;;
14734;SDS011;7458;49.002;8.472;2023-04-24T09:56:57;5.65;;;3.65;;
14734;SDS011;7458;49.002;8.472;2023-04-24T09:59:24;4.63;;;3.17;;
14734;SDS011;7458;49.002;8.472;2023-04-24T10:01:50;4.95;;;3.97;;
14734;SDS011;7458;49.002;8.472;2023-04-24T10:04:18;9.35;;;3.83;;
14734;SDS011;7458;49.002;8.472;2023-04-24T10:06:46;4.47;;;3.40;;
14734;SDS011;7458;49.002;8.472;2023-04-24T10:09:14;9.88;;;3.20;;
14734;SDS011;7458;49.002;8.472;2023-04-24T10:11:42;4.03;;;3.50;;
14734;SDS011;7458;49.002;8.472;2023-04-24T10:14:12;6.80;;;3.20;;
14734;SDS011;7458;49.002;8.472;2023-04-24T10:16:40;6.20;;;3.05;;
14734;SDS011;7458;49.002;8.472;2023-04-24T10:19:07;4.05;;;2.72;;
14734;SDS011;7458;49.002;8.472;2023-04-24T10:21:34;3.78;;;2.67;;
14734;SDS011;7458;49.002;8.472;2023-04-24T10:24:04;3.13;;;2.30;;
14734;SDS011;7458;49.002;8.472;2023-04-24T10:26:32;4.03;;;2.38;;
14734;SDS011;7458;49.002;8.472;2023-04-24T10:28:59;5.68;;;3.63;;
14734;SDS011;7458;49.002;8.472;2023-04-24T10:31:27;11.18;;;3.08;;
14734;SDS011;7458;49.002;8.472;2023-04-24T10:33:57;3.58;;;2.78;;
14734;SDS011;7458;49.002;8.472;2023-04-24T10:36:26;5.18;;;3.20;;
14734;SDS011;7458;49.002;8.472;2023-04-24T10:38:54;3.50;;;3.15;;
14734;SDS011;7458;49.002;8.472;2023-04-24T10:41:25;5.38;;;4.45;;
14734;SDS011;7458;49.002;8.472;2023-04-24T10:44:04;5.65;;;3.60;;
14734;SDS011;7458;49.002;8.472;2023-04-24T10:46:39;5.03;;;3.45;;
14734;SDS011;7458;49.002;8.472;2023-04-24T10:49:10;5.78;;;2.95;;
14734;SDS011;7458;49.002;8.472;2023-04-24T10:51:52;3.10;;;2.80;;
14734;SDS011;7458;49.002;8.472;2023-04-24T10:54:29;1246.35;;;999.90;;
14734;SDS011;7458;49.002;8.472;2023-04-24T10:59:49;1251.10;;;999.90;;
14734;SDS011;7458;49.002;8.472;2023-04-24T11:02:45;1226.38;;;999.90;;
14734;SDS011;7458;49.002;8.472;2023-04-24T11:05:18;1260.22;;;999.90;;
14734;SDS011;7458;49.002;8.472;2023-04-24T11:10:47;1292.82;;;999.90;;
14734;SDS011;7458;49.002;8.472;2023-04-24T11:13:21;1223.47;;;999.90;;
14734;SDS011;7458;49.002;8.472;2023-04-24T11:18:51;1199.25;;;999.90;;
14734;SDS011;7458;49.002;8.472;2023-04-24T11:21:25;12.00;;;5.13;;
14734;SDS011;7458;49.002;8.472;2023-04-24T11:23:56;4.35;;;3.60;;
14734;SDS011;7458;49.002;8.472;2023-04-24T11:26:22;7.90;;;4.90;;
14734;SDS011;7458;49.002;8.472;2023-04-24T11:28:55;4.38;;;3.90;;
14734;SDS011;7458;49.002;8.472;2023-04-24T11:31:36;6.35;;;4.50;;
14734;SDS011;7458;49.002;8.472;2023-04-24T11:34:12;5.80;;;4.57;;
14734;SDS011;7458;49.002;8.472;2023-04-24T11:36:39;6.25;;;5.57;;
14734;SDS011;7458;49.002;8.472;2023-04-24T11:39:08;7.57;;;6.25;;
14734;SDS011;7458;49.002;8.472;2023-04-24T11:41:36;6.97;;;5.45;;
14734;SDS011;7458;49.002;8.472;2023-04-24T11:44:02;6.55;;;5.85;;
14734;SDS011;7458;49.002;8.472;2023-04-24T11:46:31;6.28;;;5.68;;
14734;SDS011;7458;49.002;8.472;2023-04-24T11:48:57;7.22;;;5.85;;
14734;SDS011;7458;49.002;8.472;2023-04-24T11:51:26;1337.70;;;999.90;;
14734;SDS011;7458;49.002;8.472;2023-04-24T11:53:55;1338.55;;;999.90;;
14734;SDS011;7458;49.002;8.472;2023-04-24T11:56:22;6.85;;;4.88;;
14734;SDS011;7458;49.002;8.472;2023-04-24T11:58:51;5.70;;;5.20;;
14734;SDS011;7458;49.002;8.472;2023-04-24T12:01:19;6.05;;;4.50;;
14734;SDS011;7458;49.002;8.472;2023-04-24T12:03:49;8.88;;;4.93;;
14734;SDS011;7458;49.002;8.472;2023-04-24T12:06:18;14.63;;;5.38;;
14734;SDS011;7458;49.002;8.472;2023-04-24T12:08:47;8.32;;;6.05;;
14734;SDS011;7458;49.002;8.472;2023-04-24T12:11:14;6.78;;;5.40;;
14734;SDS011;7458;49.002;8.472;2023-04-24T12:13:43;7.38;;;4.85;;
14734;SDS011;7458;49.002;8.472;2023-04-24T12:16:10;5.70;;;5.10;;
14734;SDS011;7458;49.002;8.472;2023-04-24T12:18:41;5.82;;;4.72;;
14734;SDS011;7458;49.002;8.472;2023-04-24T12:21:23;9.73;;;5.57;;
14734;SDS011;7458;49.002;8.472;2023-04-24T12:23:54;5.32;;;4.55;;
14734;SDS011;7458;49.002;8.472;2023-04-24T12:26:20;6.35;;;4.50;;
14734;SDS011;7458;49.002;8.472;2023-04-24T12:28:48;7.68;;;4.97;;
14734;SDS011;7458;49.002;8.472;2023-04-24T12:31:15;9.93;;;5.25;;
14734;SDS011;7458;49.002;8.472;2023-04-24T12:33:42;7.05;;;5.32;;
14734;SDS011;7458;49.002;8.472;2023-04-24T12:36:09;7.03;;;4.95;;
14734;SDS011;7458;49.002;8.472;2023-04-24T12:38:37;6.78;;;4.05;;
14734;SDS011;7458;49.002;8.472;2023-04-24T12:41:10;5.95;;;4.93;;
14734;SDS011;7458;49.002;8.472;2023-04-24T12:43:38;6.57;;;5.18;;
14734;SDS011;7458;49.002;8.472;2023-04-24T12:46:18;5.82;;;5.22;;
14734;SDS011;7458;49.002;8.472;2023-04-24T12:48:44;8.75;;;5.35;;
14734;SDS011;7458;49.002;8.472;2023-04-24T12:51:10;6.10;;;4.55;;
14734;SDS011;7458;49.002;8.472;2023-04-24T12:53:36;5.90;;;4.32;;
14734;SDS011;7458;49.002;8.472;2023-04-24T12:56:02;5.68;;;4.63;;
14734;SDS011;7458;49.002;8.472;2023-04-24T12:58:28;8.55;;;4.75;;
14734;SDS011;7458;49.002;8.472;2023-04-24T13:00:54;5.18;;;4.60;;
14734;SDS011;7458;49.002;8.472;2023-04-24T13:03:20;4.72;;;3.83;;
14734;SDS011;7458;49.002;8.472;2023-04-24T13:05:47;4.65;;;3.60;;
14734;SDS011;7458;49.002;8.472;2023-04-24T13:08:13;7.18;;;5.00;;
14734;SDS011;7458;49.002;8.472;2023-04-24T13:10:39;9.80;;;5.32;;
14734;SDS011;7458;49.002;8.472;2023-04-24T13:13:05;8.50;;;4.43;;
14734;SDS011;7458;49.002;8.472;2023-04-24T13:15:31;6.05;;;4.72;;
14734;SDS011;7458;49.002;8.472;2023-04-24T13:17:57;8.15;;;5.05;;
14734;SDS011;7458;49.002;8.472;2023-04-24T13:20:23;6.80;;;4.38;;
14734;SDS011;7458;49.002;8.472;2023-04-24T13:22:49;9.45;;;4.88;;
14734;SDS011;7458;49.002;8.472;2023-04-24T13:25:14;6.00;;;4.25;;
14734;SDS011;7458;49.002;8.472;2023-04-24T13:27:41;5.53;;;4.53;;
14734;SDS011;7458;49.002;8.472;2023-04-24T13:30:07;4.93;;;4.15;;
14734;SDS011;7458;49.002;8.472;2023-04-24T13:32:33;10.23;;;5.05;;
14734;SDS011;7458;49.002;8.472;2023-04-24T13:35:00;5.90;;;4.43;;
14734;SDS011;7458;49.002;8.472;2023-04-24T13:37:26;9.55;;;6.03;;
14734;SDS011;7458;49.002;8.472;2023-04-24T13:39:52;6.50;;;3.60;;
14734;SDS011;7458;49.002;8.472;2023-04-24T13:42:19;9.85;;;4.10;;
14734;SDS011;7458;49.002;8.472;2023-04-24T13:44:45;5.15;;;4.32;;
14734;SDS011;7458;49.002;8.472;2023-04-24T13:47:11;5.18;;;3.88;;
14734;SDS011;7458;49.002;8.472;2023-04-24T13:49:37;5.93;;;5.25;;
14734;SDS011;7458;49.002;8.472;2023-04-24T13:52:03;9.98;;;4.85;;
14734;SDS011;7458;49.002;8.472;2023-04-24T13:54:28;5.15;;;3.78;;
14734;SDS011;7458;49.002;8.472;2023-04-24T13:56:55;6.43;;;5.20;;
14734;SDS011;7458;49.002;8.472;2023-04-24T13:59:23;7.53;;;3.78;;
14734;SDS011;7458;49.002;8.472;2023-04-24T14:01:49;6.68;;;3.72;;
14734;SDS011;7458;49.002;8.472;2023-04-24T14:04:14;4.85;;;4.35;;
14734;SDS011;7458;49.002;8.472;2023-04-24T14:06:40;8.48;;;4.43;;
14734;SDS011;7458;49.002;8.472;2023-04-24T14:09:06;6.50;;;4.22;;
14734;SDS011;7458;49.002;8.472;2023-04-24T14:11:33;4.32;;;3.78;;
14734;SDS011;7458;49.002;8.472;2023-04-24T14:13:59;6.28;;;3.08;;
14734;SDS011;7458;49.002;8.472;2023-04-24T14:16:25;5.72;;;3.90;;
14734;SDS011;7458;49.002;8.472;2023-04-24T14:18:51;5.57;;;3.30;;
14734;SDS011;7458;49.002;8.472;2023-04-24T14:21:16;4.55;;;3.28;;
14734;SDS011;7458;49.002;8.472;2023-04-24T14:23:42;4.53;;;3.38;;
14734;SDS011;7458;49.002;8.472;2023-04-24T14:26:09;4.75;;;3.72;;
14734;SDS011;7458;49.002;8.472;2023-04-24T14:28:35;5.07;;;4.40;;
14734;SDS011;7458;49.002;8.472;2023-04-24T14:31:00;4.72;;;4.10;;
14734;SDS011;7458;49.002;8.472;2023-04-24T14:33:26;5.25;;;4.55;;
14734;SDS011;7458;49.002;8.472;2023-04-24T14:35:52;7.50;;;5.82;;
14734;SDS011;7458;49.002;8.472;2023-04-24T14:38:18;9.65;;;4.93;;
14734;SDS011;7458;49.002;8.472;2023-04-24T14:40:44;5.43;;;4.28;;
14734;SDS011;7458;49.002;8.472;2023-04-24T14:43:10;5.85;;;4.47;;
14734;SDS011;7458;49.002;8.472;2023-04-24T14:45:36;4.80;;;3.80;;
14734;SDS011;7458;49.002;8.472;2023-04-24T14:48:03;5.20;;;3.65;;
14734;SDS011;7458;49.002;8.472;2023-04-24T14:50:29;12.93;;;3.67;;
14734;SDS011;7458;49.002;8.472;2023-04-24T14:52:55;4.00;;;3.22;;
14734;SDS011;7458;49.002;8.472;2023-04-24T14:55:22;4.80;;;3.05;;